PGRO/ROP METAR and TAF weather

Enter ICAO airport designator
Station Type Date Time Source
PGRO METAR 2020/07/12 03:50 UTC NOAA

PGRO 120350Z 08012KT 7SM SCT015 BKN100 28/24 A2979


Station Type Date Time Source
PGRO Decoded METAR 2020/07/12 03:50 UTC NOAA

Rota Island, N. Mariana Is, Rota International Airport, GU, United States (PGRO) 14-11N 145-15E
Jul 11, 2020 - 11:50 PM EDT / 2020.07.12 0350 UTC
Wind: from the E (080 degrees) at 14 MPH (12 KT):0
Visibility: 7 mile(s):0
Sky conditions: mostly cloudy
Temperature: 82 F (28 C)
Dew Point: 75 F (24 C)
Relative Humidity: 78%
Pressure (altimeter): 29.79 in. Hg (1008 hPa)
ob: PGRO 120350Z 08012KT 7SM SCT015 BKN100 28/24 A2979
cycle: 4

Station Type Date Time Source
PGRO TAF 2020/07/11 21:15 UTC NOAA

TAF PGRO 112111Z 1121/1218 08010KT P6SM VCSH FEW020 SCT050
FM120000 08013KT P6SM VCSH SCT018 SCT040
FM120800 07010KT P6SM VCSH FEW020 SCT050

Example: see airport list